Norcross, Georgia
Current Conditions -  °F | °C
As of 1:53 AM on Monday 24 Nov 2014 (Local Time) from KPDK Reporting Station
Overcast Overcast  
Wind Chill: 59°   Ceiling: 2600
Heat Index: 59°   Visibility: 10mi
Dew Point: 55°   Wind: 7mph
Humidity: 87%   Direction: 180°S
Pressure: 29.75"   Gusts: NA
Location:  33.94°N, 84.21°W
Report Text: KPDK 240653Z AUTO 18006KT 10SM SCT018 OVC026 15/13 A2975 RMK AO2 SLP074 T01500128
Loading
Personal Weather Stations






























Interactive Weather Map New forecast layout! Learn more

10-Day Weather Forecast

Advertisements
Track Severe Weather on mobile